sensor_id;sensor_type;location;lat;lon;timestamp;temperature;humidity
41318;DHT22;27067;51.554;7.026;2022-08-19T00:02:24;24.10;84.40
41318;DHT22;27067;51.554;7.026;2022-08-19T00:04:50;24.10;84.30
41318;DHT22;27067;51.554;7.026;2022-08-19T00:07:18;24.10;84.30
41318;DHT22;27067;51.554;7.026;2022-08-19T00:09:44;24.10;84.40
41318;DHT22;27067;51.554;7.026;2022-08-19T00:12:09;24.10;84.30
41318;DHT22;27067;51.554;7.026;2022-08-19T00:14:35;24.10;84.20
41318;DHT22;27067;51.554;7.026;2022-08-19T00:17:01;24.10;84.20
41318;DHT22;27067;51.554;7.026;2022-08-19T00:19:27;24.10;84.20
41318;DHT22;27067;51.554;7.026;2022-08-19T00:21:53;24.10;84.10
41318;DHT22;27067;51.554;7.026;2022-08-19T00:24:19;24.10;84.20
41318;DHT22;27067;51.554;7.026;2022-08-19T00:26:45;24.00;84.00
41318;DHT22;27067;51.554;7.026;2022-08-19T00:29:11;24.00;84.00
41318;DHT22;27067;51.554;7.026;2022-08-19T00:31:37;24.00;84.00
41318;DHT22;27067;51.554;7.026;2022-08-19T00:34:03;24.00;83.90
41318;DHT22;27067;51.554;7.026;2022-08-19T00:36:29;24.00;83.90
41318;DHT22;27067;51.554;7.026;2022-08-19T00:38:55;24.00;83.90
41318;DHT22;27067;51.554;7.026;2022-08-19T00:41:21;24.00;83.80
41318;DHT22;27067;51.554;7.026;2022-08-19T00:44:02;24.00;83.80
41318;DHT22;27067;51.554;7.026;2022-08-19T00:46:28;24.00;83.90
41318;DHT22;27067;51.554;7.026;2022-08-19T00:48:54;24.00;83.80
41318;DHT22;27067;51.554;7.026;2022-08-19T00:51:19;24.00;83.70
41318;DHT22;27067;51.554;7.026;2022-08-19T00:53:45;24.00;83.80
41318;DHT22;27067;51.554;7.026;2022-08-19T00:56:11;24.00;83.50
41318;DHT22;27067;51.554;7.026;2022-08-19T00:58:36;24.00;83.50
41318;DHT22;27067;51.554;7.026;2022-08-19T01:01:03;24.00;83.30
41318;DHT22;27067;51.554;7.026;2022-08-19T01:03:29;24.00;83.30
41318;DHT22;27067;51.554;7.026;2022-08-19T01:05:54;23.90;83.30
41318;DHT22;27067;51.554;7.026;2022-08-19T01:08:20;23.90;83.40
41318;DHT22;27067;51.554;7.026;2022-08-19T01:10:48;24.00;83.40
41318;DHT22;27067;51.554;7.026;2022-08-19T01:13:16;23.90;83.50
41318;DHT22;27067;51.554;7.026;2022-08-19T01:15:43;23.90;83.50
41318;DHT22;27067;51.554;7.026;2022-08-19T01:18:10;23.90;83.40
41318;DHT22;27067;51.554;7.026;2022-08-19T01:20:37;23.90;83.30
41318;DHT22;27067;51.554;7.026;2022-08-19T01:23:02;23.90;83.20
41318;DHT22;27067;51.554;7.026;2022-08-19T01:25:36;23.90;83.20
41318;DHT22;27067;51.554;7.026;2022-08-19T01:28:04;23.90;83.20
41318;DHT22;27067;51.554;7.026;2022-08-19T01:30:32;23.90;83.20
41318;DHT22;27067;51.554;7.026;2022-08-19T01:32:58;23.90;83.20
41318;DHT22;27067;51.554;7.026;2022-08-19T01:35:26;23.80;83.20
41318;DHT22;27067;51.554;7.026;2022-08-19T01:40:18;23.90;83.40
41318;DHT22;27067;51.554;7.026;2022-08-19T01:42:46;23.90;83.10
41318;DHT22;27067;51.554;7.026;2022-08-19T01:45:12;23.90;83.20
41318;DHT22;27067;51.554;7.026;2022-08-19T01:47:38;23.80;83.30
41318;DHT22;27067;51.554;7.026;2022-08-19T01:50:05;23.80;83.40
41318;DHT22;27067;51.554;7.026;2022-08-19T01:52:31;23.80;83.20
41318;DHT22;27067;51.554;7.026;2022-08-19T01:54:57;23.80;83.10
41318;DHT22;27067;51.554;7.026;2022-08-19T01:57:22;23.80;82.90
41318;DHT22;27067;51.554;7.026;2022-08-19T01:59:48;23.80;82.80
41318;DHT22;27067;51.554;7.026;2022-08-19T02:02:13;23.80;82.90
41318;DHT22;27067;51.554;7.026;2022-08-19T02:04:39;23.80;82.80
41318;DHT22;27067;51.554;7.026;2022-08-19T02:07:05;23.80;82.70
41318;DHT22;27067;51.554;7.026;2022-08-19T02:09:31;23.80;82.70
41318;DHT22;27067;51.554;7.026;2022-08-19T02:11:57;23.80;82.40
41318;DHT22;27067;51.554;7.026;2022-08-19T02:14:22;23.80;82.30
41318;DHT22;27067;51.554;7.026;2022-08-19T02:16:48;23.70;82.50
41318;DHT22;27067;51.554;7.026;2022-08-19T02:19:13;23.70;82.60
41318;DHT22;27067;51.554;7.026;2022-08-19T02:21:39;23.70;82.60
41318;DHT22;27067;51.554;7.026;2022-08-19T02:24:04;23.70;82.40
41318;DHT22;27067;51.554;7.026;2022-08-19T02:26:31;23.70;82.40
41318;DHT22;27067;51.554;7.026;2022-08-19T02:28:56;23.70;82.20
41318;DHT22;27067;51.554;7.026;2022-08-19T02:31:23;23.70;82.40
41318;DHT22;27067;51.554;7.026;2022-08-19T02:33:49;23.70;82.40
41318;DHT22;27067;51.554;7.026;2022-08-19T02:36:15;23.70;82.50
41318;DHT22;27067;51.554;7.026;2022-08-19T02:38:42;23.60;82.30
41318;DHT22;27067;51.554;7.026;2022-08-19T02:41:18;23.70;82.60
41318;DHT22;27067;51.554;7.026;2022-08-19T02:43:44;23.70;82.50
41318;DHT22;27067;51.554;7.026;2022-08-19T02:48:46;23.60;82.00
41318;DHT22;27067;51.554;7.026;2022-08-19T02:51:15;23.60;82.10
41318;DHT22;27067;51.554;7.026;2022-08-19T02:53:41;23.60;81.90
41318;DHT22;27067;51.554;7.026;2022-08-19T02:56:07;23.60;81.90
41318;DHT22;27067;51.554;7.026;2022-08-19T02:58:33;23.60;82.10
41318;DHT22;27067;51.554;7.026;2022-08-19T03:00:58;23.60;81.90
41318;DHT22;27067;51.554;7.026;2022-08-19T03:03:24;23.60;82.30
41318;DHT22;27067;51.554;7.026;2022-08-19T03:05:50;23.60;82.30
41318;DHT22;27067;51.554;7.026;2022-08-19T03:08:15;23.60;82.20
41318;DHT22;27067;51.554;7.026;2022-08-19T03:10:43;23.60;82.00
41318;DHT22;27067;51.554;7.026;2022-08-19T03:13:10;23.60;82.00
41318;DHT22;27067;51.554;7.026;2022-08-19T03:15:38;23.60;82.00
41318;DHT22;27067;51.554;7.026;2022-08-19T03:18:04;23.60;82.30
41318;DHT22;27067;51.554;7.026;2022-08-19T03:20:30;23.60;82.30
41318;DHT22;27067;51.554;7.026;2022-08-19T03:22:55;23.60;82.10
41318;DHT22;27067;51.554;7.026;2022-08-19T03:25:21;23.60;82.00
41318;DHT22;27067;51.554;7.026;2022-08-19T03:27:46;23.60;81.90
41318;DHT22;27067;51.554;7.026;2022-08-19T03:30:14;23.60;81.90
41318;DHT22;27067;51.554;7.026;2022-08-19T03:32:39;23.50;81.90
41318;DHT22;27067;51.554;7.026;2022-08-19T03:35:05;23.60;82.10
41318;DHT22;27067;51.554;7.026;2022-08-19T03:37:31;23.50;83.40
41318;DHT22;27067;51.554;7.026;2022-08-19T03:39:56;23.50;84.30
41318;DHT22;27067;51.554;7.026;2022-08-19T03:42:22;23.40;83.50
41318;DHT22;27067;51.554;7.026;2022-08-19T03:44:47;23.40;83.20
41318;DHT22;27067;51.554;7.026;2022-08-19T03:47:13;23.40;83.20
41318;DHT22;27067;51.554;7.026;2022-08-19T03:49:42;23.40;82.90
41318;DHT22;27067;51.554;7.026;2022-08-19T03:52:07;23.40;82.90
41318;DHT22;27067;51.554;7.026;2022-08-19T03:54:33;23.50;82.80
41318;DHT22;27067;51.554;7.026;2022-08-19T03:56:58;23.50;85.60
41318;DHT22;27067;51.554;7.026;2022-08-19T03:59:25;23.40;83.90
41318;DHT22;27067;51.554;7.026;2022-08-19T04:01:52;23.30;84.00
41318;DHT22;27067;51.554;7.026;2022-08-19T04:04:18;23.30;83.40
41318;DHT22;27067;51.554;7.026;2022-08-19T04:06:43;23.30;84.20
41318;DHT22;27067;51.554;7.026;2022-08-19T04:09:09;23.30;84.20
41318;DHT22;27067;51.554;7.026;2022-08-19T04:11:40;23.20;83.70
41318;DHT22;27067;51.554;7.026;2022-08-19T04:14:09;23.20;84.20
41318;DHT22;27067;51.554;7.026;2022-08-19T04:16:35;23.20;84.60
41318;DHT22;27067;51.554;7.026;2022-08-19T04:19:01;23.20;84.60
41318;DHT22;27067;51.554;7.026;2022-08-19T04:21:27;23.10;84.30
41318;DHT22;27067;51.554;7.026;2022-08-19T04:23:53;23.00;84.30
41318;DHT22;27067;51.554;7.026;2022-08-19T04:26:21;23.00;84.40
41318;DHT22;27067;51.554;7.026;2022-08-19T04:28:47;23.00;84.30
41318;DHT22;27067;51.554;7.026;2022-08-19T04:31:14;22.90;84.30
41318;DHT22;27067;51.554;7.026;2022-08-19T04:33:40;22.90;84.40
41318;DHT22;27067;51.554;7.026;2022-08-19T04:36:05;22.80;84.30
41318;DHT22;27067;51.554;7.026;2022-08-19T04:38:31;22.80;84.20
41318;DHT22;27067;51.554;7.026;2022-08-19T04:40:56;22.80;84.00
41318;DHT22;27067;51.554;7.026;2022-08-19T04:43:41;22.70;83.80
41318;DHT22;27067;51.554;7.026;2022-08-19T04:46:07;22.70;83.80
41318;DHT22;27067;51.554;7.026;2022-08-19T04:48:34;22.70;83.70
41318;DHT22;27067;51.554;7.026;2022-08-19T04:50:59;22.70;83.90
41318;DHT22;27067;51.554;7.026;2022-08-19T04:53:28;22.70;84.00
41318;DHT22;27067;51.554;7.026;2022-08-19T04:55:58;22.70;84.00
41318;DHT22;27067;51.554;7.026;2022-08-19T04:58:24;22.70;84.10
41318;DHT22;27067;51.554;7.026;2022-08-19T05:00:49;22.70;84.10
41318;DHT22;27067;51.554;7.026;2022-08-19T05:03:16;22.70;84.10
41318;DHT22;27067;51.554;7.026;2022-08-19T05:05:43;22.70;84.30
41318;DHT22;27067;51.554;7.026;2022-08-19T05:08:10;22.70;84.40
41318;DHT22;27067;51.554;7.026;2022-08-19T05:10:36;22.70;84.50
41318;DHT22;27067;51.554;7.026;2022-08-19T05:13:02;22.70;84.60
41318;DHT22;27067;51.554;7.026;2022-08-19T05:15:28;22.60;84.50
41318;DHT22;27067;51.554;7.026;2022-08-19T05:17:53;22.70;84.60
41318;DHT22;27067;51.554;7.026;2022-08-19T05:20:38;22.70;84.60
41318;DHT22;27067;51.554;7.026;2022-08-19T05:23:22;22.70;84.80
41318;DHT22;27067;51.554;7.026;2022-08-19T05:25:48;22.70;84.90
41318;DHT22;27067;51.554;7.026;2022-08-19T05:28:14;22.70;85.10
41318;DHT22;27067;51.554;7.026;2022-08-19T05:30:39;22.70;85.40
41318;DHT22;27067;51.554;7.026;2022-08-19T05:33:06;22.70;85.50
41318;DHT22;27067;51.554;7.026;2022-08-19T05:35:35;22.70;85.80
41318;DHT22;27067;51.554;7.026;2022-08-19T05:38:01;22.70;86.00
41318;DHT22;27067;51.554;7.026;2022-08-19T05:40:27;22.70;86.20
41318;DHT22;27067;51.554;7.026;2022-08-19T05:42:52;22.70;86.30
41318;DHT22;27067;51.554;7.026;2022-08-19T05:45:20;22.70;86.60
41318;DHT22;27067;51.554;7.026;2022-08-19T05:47:47;22.70;86.70
41318;DHT22;27067;51.554;7.026;2022-08-19T05:50:12;22.70;86.80
41318;DHT22;27067;51.554;7.026;2022-08-19T05:52:38;23.20;87.40
41318;DHT22;27067;51.554;7.026;2022-08-19T05:55:04;22.70;87.40
41318;DHT22;27067;51.554;7.026;2022-08-19T05:57:30;22.70;88.20
41318;DHT22;27067;51.554;7.026;2022-08-19T05:59:56;22.70;88.20
41318;DHT22;27067;51.554;7.026;2022-08-19T06:02:22;22.70;87.80
41318;DHT22;27067;51.554;7.026;2022-08-19T06:04:48;22.70;87.80
41318;DHT22;27067;51.554;7.026;2022-08-19T06:07:14;22.80;87.90
41318;DHT22;27067;51.554;7.026;2022-08-19T06:09:40;22.90;87.90
41318;DHT22;27067;51.554;7.026;2022-08-19T06:12:06;22.90;88.00
41318;DHT22;27067;51.554;7.026;2022-08-19T06:14:32;23.00;89.70
41318;DHT22;27067;51.554;7.026;2022-08-19T06:16:59;23.20;90.40
41318;DHT22;27067;51.554;7.026;2022-08-19T06:19:27;23.20;91.10
41318;DHT22;27067;51.554;7.026;2022-08-19T06:21:54;23.30;91.00
41318;DHT22;27067;51.554;7.026;2022-08-19T06:24:21;23.30;90.70
41318;DHT22;27067;51.554;7.026;2022-08-19T06:26:49;23.30;90.40
41318;DHT22;27067;51.554;7.026;2022-08-19T06:29:16;23.30;90.10
41318;DHT22;27067;51.554;7.026;2022-08-19T06:31:44;23.30;89.90
41318;DHT22;27067;51.554;7.026;2022-08-19T06:34:10;23.30;89.60
41318;DHT22;27067;51.554;7.026;2022-08-19T06:36:36;23.40;89.40
41318;DHT22;27067;51.554;7.026;2022-08-19T06:39:07;23.40;89.20
41318;DHT22;27067;51.554;7.026;2022-08-19T06:41:37;23.40;89.10
41318;DHT22;27067;51.554;7.026;2022-08-19T06:44:04;23.40;88.80
41318;DHT22;27067;51.554;7.026;2022-08-19T06:46:30;23.50;88.70
41318;DHT22;27067;51.554;7.026;2022-08-19T06:48:56;23.50;88.60
41318;DHT22;27067;51.554;7.026;2022-08-19T06:51:22;23.50;88.40
41318;DHT22;27067;51.554;7.026;2022-08-19T06:53:50;23.50;88.30
41318;DHT22;27067;51.554;7.026;2022-08-19T06:56:17;23.50;88.10
41318;DHT22;27067;51.554;7.026;2022-08-19T06:58:43;23.50;87.80
41318;DHT22;27067;51.554;7.026;2022-08-19T07:01:09;23.50;87.80
41318;DHT22;27067;51.554;7.026;2022-08-19T07:03:35;23.50;87.70
41318;DHT22;27067;51.554;7.026;2022-08-19T07:06:09;23.50;87.70
41318;DHT22;27067;51.554;7.026;2022-08-19T07:08:35;23.60;87.60
41318;DHT22;27067;51.554;7.026;2022-08-19T07:11:02;23.60;87.60
41318;DHT22;27067;51.554;7.026;2022-08-19T07:13:32;23.60;87.50
41318;DHT22;27067;51.554;7.026;2022-08-19T07:16:05;23.60;87.50
41318;DHT22;27067;51.554;7.026;2022-08-19T07:18:30;23.60;87.50
41318;DHT22;27067;51.554;7.026;2022-08-19T07:21:06;23.60;87.30
41318;DHT22;27067;51.554;7.026;2022-08-19T07:23:32;23.60;87.30
41318;DHT22;27067;51.554;7.026;2022-08-19T07:25:58;23.60;87.10
41318;DHT22;27067;51.554;7.026;2022-08-19T07:28:23;23.60;87.00
41318;DHT22;27067;51.554;7.026;2022-08-19T07:30:49;23.60;86.90
41318;DHT22;27067;51.554;7.026;2022-08-19T07:33:15;23.60;86.90
41318;DHT22;27067;51.554;7.026;2022-08-19T07:35:43;23.60;86.90
41318;DHT22;27067;51.554;7.026;2022-08-19T07:38:09;23.60;86.80
41318;DHT22;27067;51.554;7.026;2022-08-19T07:40:34;23.60;86.70
41318;DHT22;27067;51.554;7.026;2022-08-19T07:43:00;23.60;86.70
41318;DHT22;27067;51.554;7.026;2022-08-19T07:45:25;23.70;86.70
41318;DHT22;27067;51.554;7.026;2022-08-19T07:47:52;23.70;86.70
41318;DHT22;27067;51.554;7.026;2022-08-19T07:50:18;23.60;86.70
41318;DHT22;27067;51.554;7.026;2022-08-19T07:52:44;23.60;86.70
41318;DHT22;27067;51.554;7.026;2022-08-19T07:55:10;23.60;86.70
41318;DHT22;27067;51.554;7.026;2022-08-19T07:57:36;23.70;86.70
41318;DHT22;27067;51.554;7.026;2022-08-19T08:00:02;23.70;86.70
41318;DHT22;27067;51.554;7.026;2022-08-19T08:02:28;23.70;86.60
41318;DHT22;27067;51.554;7.026;2022-08-19T08:04:54;23.70;86.60
41318;DHT22;27067;51.554;7.026;2022-08-19T08:07:38;23.70;86.50
41318;DHT22;27067;51.554;7.026;2022-08-19T08:10:22;23.70;86.50
41318;DHT22;27067;51.554;7.026;2022-08-19T08:12:47;23.70;86.60
41318;DHT22;27067;51.554;7.026;2022-08-19T08:15:13;23.70;86.60
41318;DHT22;27067;51.554;7.026;2022-08-19T08:17:42;23.70;86.60
41318;DHT22;27067;51.554;7.026;2022-08-19T08:20:07;23.70;86.60
41318;DHT22;27067;51.554;7.026;2022-08-19T08:22:33;23.70;86.60
41318;DHT22;27067;51.554;7.026;2022-08-19T08:25:18;23.70;86.60
41318;DHT22;27067;51.554;7.026;2022-08-19T08:27:46;23.70;86.60
41318;DHT22;27067;51.554;7.026;2022-08-19T08:30:24;23.70;86.60
41318;DHT22;27067;51.554;7.026;2022-08-19T08:32:51;23.70;86.70
41318;DHT22;27067;51.554;7.026;2022-08-19T08:35:18;23.70;87.00
41318;DHT22;27067;51.554;7.026;2022-08-19T08:37:44;23.70;87.20
41318;DHT22;27067;51.554;7.026;2022-08-19T08:40:28;23.70;87.30
41318;DHT22;27067;51.554;7.026;2022-08-19T08:45:25;23.70;87.30
41318;DHT22;27067;51.554;7.026;2022-08-19T08:47:52;23.70;87.50
41318;DHT22;27067;51.554;7.026;2022-08-19T08:50:23;23.70;87.80
41318;DHT22;27067;51.554;7.026;2022-08-19T08:52:52;23.70;87.70
41318;DHT22;27067;51.554;7.026;2022-08-19T08:55:23;23.70;87.70
41318;DHT22;27067;51.554;7.026;2022-08-19T08:58:04;23.70;87.80
41318;DHT22;27067;51.554;7.026;2022-08-19T09:00:35;23.70;87.80
41318;DHT22;27067;51.554;7.026;2022-08-19T09:03:02;23.70;87.70
41318;DHT22;27067;51.554;7.026;2022-08-19T09:10:58;23.70;87.60
41318;DHT22;27067;51.554;7.026;2022-08-19T09:16:11;23.70;87.60
41318;DHT22;27067;51.554;7.026;2022-08-19T09:18:45;23.70;87.60
41318;DHT22;27067;51.554;7.026;2022-08-19T09:21:13;23.70;87.70
41318;DHT22;27067;51.554;7.026;2022-08-19T09:23:39;23.70;87.70
41318;DHT22;27067;51.554;7.026;2022-08-19T09:26:12;23.70;87.60
41318;DHT22;27067;51.554;7.026;2022-08-19T09:28:39;23.70;87.50
41318;DHT22;27067;51.554;7.026;2022-08-19T09:31:09;23.70;87.20
41318;DHT22;27067;51.554;7.026;2022-08-19T09:33:35;23.70;86.90
41318;DHT22;27067;51.554;7.026;2022-08-19T09:36:02;23.70;86.80
41318;DHT22;27067;51.554;7.026;2022-08-19T09:38:28;23.70;86.70
41318;DHT22;27067;51.554;7.026;2022-08-19T09:40:54;23.70;86.40
41318;DHT22;27067;51.554;7.026;2022-08-19T09:43:20;23.70;86.30
41318;DHT22;27067;51.554;7.026;2022-08-19T09:45:46;23.70;86.10
41318;DHT22;27067;51.554;7.026;2022-08-19T09:48:13;23.70;85.70
41318;DHT22;27067;51.554;7.026;2022-08-19T09:50:38;23.70;86.30
41318;DHT22;27067;51.554;7.026;2022-08-19T09:53:04;23.70;86.40
41318;DHT22;27067;51.554;7.026;2022-08-19T09:55:31;23.70;86.50
41318;DHT22;27067;51.554;7.026;2022-08-19T09:57:57;23.70;86.60
41318;DHT22;27067;51.554;7.026;2022-08-19T10:00:22;23.70;86.80
41318;DHT22;27067;51.554;7.026;2022-08-19T10:02:48;23.70;86.80
41318;DHT22;27067;51.554;7.026;2022-08-19T10:05:13;23.70;86.90
41318;DHT22;27067;51.554;7.026;2022-08-19T10:07:58;23.70;86.90
41318;DHT22;27067;51.554;7.026;2022-08-19T10:10:26;23.70;86.80
41318;DHT22;27067;51.554;7.026;2022-08-19T10:12:51;23.70;86.80
41318;DHT22;27067;51.554;7.026;2022-08-19T10:15:17;23.70;86.80
41318;DHT22;27067;51.554;7.026;2022-08-19T10:17:45;23.70;86.70
41318;DHT22;27067;51.554;7.026;2022-08-19T10:20:11;23.70;86.70
41318;DHT22;27067;51.554;7.026;2022-08-19T10:22:36;23.80;86.80
41318;DHT22;27067;51.554;7.026;2022-08-19T10:25:03;23.70;86.70
41318;DHT22;27067;51.554;7.026;2022-08-19T10:27:29;23.70;86.70
41318;DHT22;27067;51.554;7.026;2022-08-19T10:29:55;23.70;86.60
41318;DHT22;27067;51.554;7.026;2022-08-19T10:32:21;23.70;86.60
41318;DHT22;27067;51.554;7.026;2022-08-19T10:34:47;23.70;86.60
41318;DHT22;27067;51.554;7.026;2022-08-19T10:37:14;23.80;86.60
41318;DHT22;27067;51.554;7.026;2022-08-19T10:39:40;23.80;86.40
41318;DHT22;27067;51.554;7.026;2022-08-19T10:42:07;23.80;86.30
41318;DHT22;27067;51.554;7.026;2022-08-19T10:44:35;23.70;86.20
41318;DHT22;27067;51.554;7.026;2022-08-19T10:47:01;23.80;86.30
41318;DHT22;27067;51.554;7.026;2022-08-19T10:49:26;23.80;86.30
41318;DHT22;27067;51.554;7.026;2022-08-19T10:51:52;23.80;86.30
41318;DHT22;27067;51.554;7.026;2022-08-19T10:54:36;24.00;86.40
41318;DHT22;27067;51.554;7.026;2022-08-19T10:57:20;23.80;86.10
41318;DHT22;27067;51.554;7.026;2022-08-19T10:59:49;23.80;86.10
41318;DHT22;27067;51.554;7.026;2022-08-19T11:02:14;23.80;86.20
41318;DHT22;27067;51.554;7.026;2022-08-19T11:04:40;23.70;86.10
41318;DHT22;27067;51.554;7.026;2022-08-19T11:07:06;23.80;86.20
41318;DHT22;27067;51.554;7.026;2022-08-19T11:09:35;23.60;86.10
41318;DHT22;27067;51.554;7.026;2022-08-19T11:12:03;23.80;86.10
41318;DHT22;27067;51.554;7.026;2022-08-19T11:14:28;23.80;86.00
41318;DHT22;27067;51.554;7.026;2022-08-19T11:16:56;23.80;85.90
41318;DHT22;27067;51.554;7.026;2022-08-19T11:19:22;23.80;85.70
41318;DHT22;27067;51.554;7.026;2022-08-19T11:21:49;23.80;85.50
41318;DHT22;27067;51.554;7.026;2022-08-19T11:24:16;23.80;85.40
41318;DHT22;27067;51.554;7.026;2022-08-19T11:26:43;23.80;85.30
41318;DHT22;27067;51.554;7.026;2022-08-19T11:29:09;23.70;85.30
41318;DHT22;27067;51.554;7.026;2022-08-19T11:31:39;23.80;85.20
41318;DHT22;27067;51.554;7.026;2022-08-19T11:34:06;23.80;85.30
41318;DHT22;27067;51.554;7.026;2022-08-19T11:36:32;23.80;85.20
41318;DHT22;27067;51.554;7.026;2022-08-19T11:38:58;23.80;85.10
41318;DHT22;27067;51.554;7.026;2022-08-19T11:41:23;23.80;85.20
41318;DHT22;27067;51.554;7.026;2022-08-19T11:43:49;23.80;85.10
41318;DHT22;27067;51.554;7.026;2022-08-19T11:46:15;23.80;85.00
41318;DHT22;27067;51.554;7.026;2022-08-19T11:48:41;23.90;84.80
41318;DHT22;27067;51.554;7.026;2022-08-19T11:51:11;23.90;84.40
41318;DHT22;27067;51.554;7.026;2022-08-19T11:53:38;23.90;84.10
41318;DHT22;27067;51.554;7.026;2022-08-19T11:56:04;23.90;84.10
41318;DHT22;27067;51.554;7.026;2022-08-19T11:58:30;23.90;83.80
41318;DHT22;27067;51.554;7.026;2022-08-19T12:00:55;23.90;83.50
41318;DHT22;27067;51.554;7.026;2022-08-19T12:03:21;23.90;83.80
41318;DHT22;27067;51.554;7.026;2022-08-19T12:05:46;23.90;82.90
41318;DHT22;27067;51.554;7.026;2022-08-19T12:08:12;23.90;82.80
41318;DHT22;27067;51.554;7.026;2022-08-19T12:10:38;23.90;82.50
41318;DHT22;27067;51.554;7.026;2022-08-19T12:13:04;23.90;82.20
41318;DHT22;27067;51.554;7.026;2022-08-19T12:15:31;23.90;81.80
41318;DHT22;27067;51.554;7.026;2022-08-19T12:18:00;23.90;81.40
41318;DHT22;27067;51.554;7.026;2022-08-19T12:20:26;23.90;81.30
41318;DHT22;27067;51.554;7.026;2022-08-19T12:22:51;24.00;81.30
41318;DHT22;27067;51.554;7.026;2022-08-19T12:25:19;24.00;81.20
41318;DHT22;27067;51.554;7.026;2022-08-19T12:27:46;24.00;81.10
41318;DHT22;27067;51.554;7.026;2022-08-19T12:30:12;24.00;81.20
41318;DHT22;27067;51.554;7.026;2022-08-19T12:32:37;24.00;81.40
41318;DHT22;27067;51.554;7.026;2022-08-19T12:35:03;24.00;81.40
41318;DHT22;27067;51.554;7.026;2022-08-19T12:37:29;24.00;81.70
41318;DHT22;27067;51.554;7.026;2022-08-19T12:39:56;24.00;82.00
41318;DHT22;27067;51.554;7.026;2022-08-19T12:42:22;24.00;82.00
41318;DHT22;27067;51.554;7.026;2022-08-19T12:44:47;24.00;81.60
41318;DHT22;27067;51.554;7.026;2022-08-19T12:47:13;24.00;81.50
41318;DHT22;27067;51.554;7.026;2022-08-19T12:49:39;24.00;81.60
41318;DHT22;27067;51.554;7.026;2022-08-19T12:52:06;24.00;81.50
41318;DHT22;27067;51.554;7.026;2022-08-19T12:54:33;24.00;81.40
41318;DHT22;27067;51.554;7.026;2022-08-19T12:56:58;24.00;81.60
41318;DHT22;27067;51.554;7.026;2022-08-19T12:59:25;24.00;82.10
41318;DHT22;27067;51.554;7.026;2022-08-19T13:01:50;24.00;82.20
41318;DHT22;27067;51.554;7.026;2022-08-19T13:04:16;24.00;82.40
41318;DHT22;27067;51.554;7.026;2022-08-19T13:06:42;24.00;82.30
41318;DHT22;27067;51.554;7.026;2022-08-19T13:09:08;24.00;81.70
41318;DHT22;27067;51.554;7.026;2022-08-19T13:11:34;24.00;81.80
41318;DHT22;27067;51.554;7.026;2022-08-19T13:14:00;24.00;82.60
41318;DHT22;27067;51.554;7.026;2022-08-19T13:16:26;24.00;83.10
41318;DHT22;27067;51.554;7.026;2022-08-19T13:18:53;24.00;82.60
41318;DHT22;27067;51.554;7.026;2022-08-19T13:21:19;24.00;82.40
41318;DHT22;27067;51.554;7.026;2022-08-19T13:23:45;24.00;82.30
41318;DHT22;27067;51.554;7.026;2022-08-19T13:26:11;24.00;82.00
41318;DHT22;27067;51.554;7.026;2022-08-19T13:28:38;24.00;81.70
41318;DHT22;27067;51.554;7.026;2022-08-19T13:31:23;24.00;80.80
41318;DHT22;27067;51.554;7.026;2022-08-19T13:34:08;24.00;80.80
41318;DHT22;27067;51.554;7.026;2022-08-19T13:36:34;24.00;80.70
41318;DHT22;27067;51.554;7.026;2022-08-19T13:39:00;24.00;80.70
41318;DHT22;27067;51.554;7.026;2022-08-19T13:41:26;24.10;80.30
41318;DHT22;27067;51.554;7.026;2022-08-19T13:43:52;24.00;79.80
41318;DHT22;27067;51.554;7.026;2022-08-19T13:46:17;24.10;79.30
41318;DHT22;27067;51.554;7.026;2022-08-19T13:48:45;24.10;79.30
41318;DHT22;27067;51.554;7.026;2022-08-19T13:51:11;24.00;78.90
41318;DHT22;27067;51.554;7.026;2022-08-19T13:53:37;24.10;79.00
41318;DHT22;27067;51.554;7.026;2022-08-19T13:56:08;24.10;79.30
41318;DHT22;27067;51.554;7.026;2022-08-19T13:58:34;24.10;79.50
41318;DHT22;27067;51.554;7.026;2022-08-19T14:01:00;24.10;79.80
41318;DHT22;27067;51.554;7.026;2022-08-19T14:03:26;24.00;80.10
41318;DHT22;27067;51.554;7.026;2022-08-19T14:05:51;24.10;80.40
41318;DHT22;27067;51.554;7.026;2022-08-19T14:08:17;24.10;80.60
41318;DHT22;27067;51.554;7.026;2022-08-19T14:10:43;24.10;80.60
41318;DHT22;27067;51.554;7.026;2022-08-19T14:13:09;24.00;80.60
41318;DHT22;27067;51.554;7.026;2022-08-19T14:15:35;24.00;80.80
41318;DHT22;27067;51.554;7.026;2022-08-19T14:18:02;24.00;81.00
41318;DHT22;27067;51.554;7.026;2022-08-19T14:20:28;24.00;81.10
41318;DHT22;27067;51.554;7.026;2022-08-19T14:22:54;24.00;81.10
41318;DHT22;27067;51.554;7.026;2022-08-19T14:25:21;24.00;80.80
41318;DHT22;27067;51.554;7.026;2022-08-19T14:27:47;24.00;80.80
41318;DHT22;27067;51.554;7.026;2022-08-19T14:30:14;24.00;80.80
41318;DHT22;27067;51.554;7.026;2022-08-19T14:32:40;24.00;80.80
41318;DHT22;27067;51.554;7.026;2022-08-19T14:35:08;24.00;80.60
41318;DHT22;27067;51.554;7.026;2022-08-19T14:37:34;24.10;80.50
41318;DHT22;27067;51.554;7.026;2022-08-19T14:40:00;24.00;80.40
41318;DHT22;27067;51.554;7.026;2022-08-19T14:42:26;24.10;80.30
41318;DHT22;27067;51.554;7.026;2022-08-19T14:44:51;24.00;80.20
41318;DHT22;27067;51.554;7.026;2022-08-19T14:47:17;24.00;80.20
41318;DHT22;27067;51.554;7.026;2022-08-19T14:49:42;24.10;79.90
41318;DHT22;27067;51.554;7.026;2022-08-19T14:52:08;24.10;79.60
41318;DHT22;27067;51.554;7.026;2022-08-19T14:54:34;24.10;79.70
41318;DHT22;27067;51.554;7.026;2022-08-19T14:56:59;24.10;79.60
41318;DHT22;27067;51.554;7.026;2022-08-19T14:59:25;24.10;79.70
41318;DHT22;27067;51.554;7.026;2022-08-19T15:01:50;24.10;79.80
41318;DHT22;27067;51.554;7.026;2022-08-19T15:04:16;24.10;79.90
41318;DHT22;27067;51.554;7.026;2022-08-19T15:06:42;24.00;80.10
41318;DHT22;27067;51.554;7.026;2022-08-19T15:09:08;24.00;80.20
41318;DHT22;27067;51.554;7.026;2022-08-19T15:11:34;24.00;80.30
41318;DHT22;27067;51.554;7.026;2022-08-19T15:13:59;24.00;80.40
41318;DHT22;27067;51.554;7.026;2022-08-19T15:16:26;24.00;80.30
41318;DHT22;27067;51.554;7.026;2022-08-19T15:18:53;24.10;80.20
41318;DHT22;27067;51.554;7.026;2022-08-19T15:21:19;24.10;80.10
41318;DHT22;27067;51.554;7.026;2022-08-19T15:23:45;24.10;80.10
41318;DHT22;27067;51.554;7.026;2022-08-19T15:26:12;24.10;80.00
41318;DHT22;27067;51.554;7.026;2022-08-19T15:28:38;24.10;80.10
41318;DHT22;27067;51.554;7.026;2022-08-19T15:31:04;24.10;80.10
41318;DHT22;27067;51.554;7.026;2022-08-19T15:33:31;24.10;80.20
41318;DHT22;27067;51.554;7.026;2022-08-19T15:35:56;24.10;80.20
41318;DHT22;27067;51.554;7.026;2022-08-19T15:38:22;24.10;80.20
41318;DHT22;27067;51.554;7.026;2022-08-19T15:40:49;24.10;80.30
41318;DHT22;27067;51.554;7.026;2022-08-19T15:43:15;24.10;80.30
41318;DHT22;27067;51.554;7.026;2022-08-19T15:45:42;24.10;80.40